Valley City, ND

6:48 PM CDT on July 24, 2017 (GMT -0500)
Valley City

Weather History for KBAC - December, 2012

Change the Weather History Date:

Wednesday, December 19, 2012

  Actual Average (KJMS) Record (KJMS)
Temperature  
Mean Temperature 18 °F -  
Max Temperature 21 °F 19 °F 50 °F (1979)
Min Temperature 14 °F 2 °F -37 °F (1916)
Degree Days  
Heating Degree Days 48    
Moisture  
Dew Point 16 °F    
Average Humidity 96    
Maximum Humidity 100    
Minimum Humidity 86    
Precipitation  
Precipitation 0.00 in - - ()
Sea Level Pressure  
Sea Level Pressure 29.86 in    
Wind  
Wind Speed 14 mph (West)    
Max Wind Speed 22 mph    
Max Gust Speed 26 mph    
Visibility 10 miles    
Events Rain , Snow    
Averages and records for this station are not official NWS values.
T = Trace of Precipitation, MM = Missing Value Source: NWS Daily Summary

Daily Weather History Graph

Daily Weather History Graph

Search for Another Location

Airport or City:

Trip Planner

Search our weather history database for the weather conditions in past years. The results will help you decide how hot, cold, wet, or windy it might be!

Date:

Astronomy

Dec. 19, 2012 Rise Set
Actual Time 8:13 AM CST 4:45 PM CST
Civil Twilight 7:38 AM CST 5:20 PM CST
Nautical Twilight 6:59 AM CST 5:59 PM CST
Astronomical Twilight 6:22 AM CST 6:36 PM CST
Moon 11:58 AM CST (12/19) No Moon Set
Length of Visible Light 9h 42m
Length of Day
8h 31m
Waxing Crescent, 45% of the Moon is Illuminated
Dec 19
Waxing Crescent
Dec 19
First Quarter
Dec 28
Full
Jan 4
Last Quarter
Jan 11
New

Hourly Weather History & Observations

Time (CST) Temp. Windchill Dew Point Humidity Pressure Visibility Wind Dir Wind Speed Gust Speed Precip Events Conditions
12:15 AM 15.8 °F 2.7 °F 15.8 °F 100% 29.68 in 10.0 mi SSW 11.5 mph - N/A   Clear
12:35 AM 15.8 °F 4.2 °F 15.8 °F 100% 29.69 in 10.0 mi SSW 9.2 mph - N/A   Clear
12:55 AM 15.8 °F 6.1 °F 15.8 °F 100% 29.69 in 10.0 mi SW 6.9 mph - N/A   Clear
1:15 AM 14.0 °F 5.1 °F 14.0 °F 100% 29.70 in 10.0 mi SW 5.8 mph - N/A   Clear
1:35 AM 17.6 °F 4.3 °F 17.6 °F 100% 29.70 in 10.0 mi West 12.7 mph - N/A   Clear
1:55 AM 19.4 °F 7.9 °F 19.4 °F 100% 29.70 in 10.0 mi WSW 10.4 mph - N/A   Clear
2:15 AM 19.4 °F 6.6 °F 19.4 °F 100% 29.71 in 10.0 mi WSW 12.7 mph - N/A   Clear
2:35 AM 19.4 °F 6.6 °F 19.4 °F 100% 29.72 in 10.0 mi WSW 12.7 mph - N/A   Clear
2:55 AM 19.4 °F 7.2 °F 19.4 °F 100% 29.73 in 10.0 mi WSW 11.5 mph - N/A   Clear
3:15 AM 19.4 °F 5.5 °F 19.4 °F 100% 29.72 in 10.0 mi SW 15.0 mph - N/A   Clear
3:35 AM 19.4 °F 6.0 °F 19.4 °F 100% 29.73 in 10.0 mi WSW 13.8 mph - N/A   Clear
3:55 AM 19.4 °F 6.6 °F 19.4 °F 100% 29.73 in 10.0 mi WSW 12.7 mph - N/A   Clear
4:15 AM 19.4 °F 7.2 °F 19.4 °F 100% 29.72 in 10.0 mi WSW 11.5 mph - N/A   Clear
4:35 AM 17.6 °F 4.3 °F 17.6 °F 100% 29.74 in 10.0 mi WSW 12.7 mph - N/A   Partly Cloudy
4:55 AM 17.6 °F 5.0 °F 17.6 °F 100% 29.74 in 10.0 mi WSW 11.5 mph - N/A   Partly Cloudy
5:15 AM 17.6 °F 1.7 °F 17.6 °F 100% 29.74 in 10.0 mi WSW 18.4 mph 23.0 mph N/A   Partly Cloudy
5:35 AM 17.6 °F 1.3 °F 17.6 °F 100% 29.74 in 10.0 mi West 19.6 mph 25.3 mph N/A Snow Light Snow
5:55 AM 15.8 °F 0.9 °F 15.8 °F 100% 29.75 in 10.0 mi West 15.0 mph - N/A   Clear
6:15 AM 15.8 °F 1.4 °F 15.8 °F 100% 29.75 in 10.0 mi West 13.8 mph - N/A   Clear
6:35 AM 15.8 °F 1.4 °F 15.8 °F 100% 29.76 in 10.0 mi West 13.8 mph - N/A   Clear
6:55 AM 14.0 °F 0.5 °F 14.0 °F 100% 29.77 in 10.0 mi West 11.5 mph - N/A   Clear
7:15 AM 14.0 °F -0.8 °F 14.0 °F 100% 29.78 in 10.0 mi WSW 13.8 mph 19.6 mph N/A   Clear
7:35 AM 14.0 °F -2.0 °F 14.0 °F 100% 29.77 in 10.0 mi West 16.1 mph - N/A   Clear
7:55 AM 14.0 °F -2.0 °F 14.0 °F 100% 29.78 in 10.0 mi West 16.1 mph - N/A   Clear
8:15 AM 14.0 °F -2.0 °F 14.0 °F 100% 29.78 in 10.0 mi West 16.1 mph - N/A   Clear
8:35 AM 14.0 °F -2.5 °F 12.2 °F 93% 29.78 in 10.0 mi West 17.3 mph 24.2 mph N/A Snow Light Snow
8:55 AM 14.0 °F -2.0 °F 12.2 °F 93% 29.79 in 10.0 mi WSW 16.1 mph - N/A   Clear
9:15 AM 14.0 °F -1.4 °F 12.2 °F 93% 29.80 in 10.0 mi West 15.0 mph - N/A   Scattered Clouds
9:35 AM 14.0 °F -1.4 °F 14.0 °F 100% 29.80 in 10.0 mi West 15.0 mph - N/A   Scattered Clouds
9:55 AM 14.0 °F -2.5 °F 14.0 °F 100% 29.81 in 10.0 mi West 17.3 mph - N/A   Mostly Cloudy
10:15 AM 15.8 °F -0.2 °F 15.8 °F 100% 29.82 in 10.0 mi West 17.3 mph - N/A   Overcast
10:35 AM 15.8 °F -1.1 °F 15.8 °F 100% 29.83 in 10.0 mi West 19.6 mph 26.5 mph N/A Snow Light Snow
10:55 AM 15.8 °F -1.9 °F 15.8 °F 100% 29.83 in 10.0 mi West 21.9 mph - N/A Snow Light Snow
11:15 AM 15.8 °F -1.1 °F 15.8 °F 100% 29.83 in 10.0 mi West 19.6 mph 25.3 mph N/A Snow Light Snow
11:35 AM 17.6 °F 2.2 °F 15.8 °F 93% 29.84 in 10.0 mi West 17.3 mph 23.0 mph N/A Snow Light Snow
11:55 AM 17.6 °F 1.7 °F 15.8 °F 93% 29.85 in 10.0 mi West 18.4 mph 25.3 mph N/A Snow Light Snow
12:15 PM 17.6 °F 2.7 °F 17.6 °F 100% 29.85 in 9.0 mi West 16.1 mph - N/A   Overcast
12:35 PM 19.4 °F 4.1 °F 17.6 °F 93% 29.86 in 9.0 mi West 18.4 mph - N/A Snow Light Snow
12:55 PM 19.4 °F 5.5 °F 17.6 °F 93% 29.86 in 9.0 mi West 15.0 mph - N/A Rain Light Freezing Rain
1:15 PM 19.4 °F 6.0 °F 17.6 °F 93% 29.87 in 10.0 mi West 13.8 mph - N/A Snow Light Snow
1:35 PM 19.4 °F 6.0 °F 17.6 °F 93% 29.87 in 9.0 mi West 13.8 mph - N/A   Overcast
1:55 PM 21.2 °F 8.9 °F 19.4 °F 93% 29.87 in 8.0 mi WNW 12.7 mph 18.4 mph N/A Snow Light Snow
2:15 PM 21.2 °F 7.3 °F 19.4 °F 93% 29.87 in 5.0 mi WNW 16.1 mph 24.2 mph N/A Snow Light Snow
2:35 PM 21.2 °F 6.4 °F 19.4 °F 93% 29.88 in 6.0 mi WNW 18.4 mph 25.3 mph N/A Snow Light Snow
2:55 PM 19.4 °F 4.1 °F 17.6 °F 93% 29.89 in 7.0 mi WNW 18.4 mph 25.3 mph N/A Snow Light Snow
3:15 PM 19.4 °F 4.5 °F 17.6 °F 93% 29.90 in 7.0 mi WNW 17.3 mph 21.9 mph N/A Snow Light Snow
3:35 PM 19.4 °F 5.5 °F 17.6 °F 93% 29.91 in 8.0 mi NW 15.0 mph - N/A Snow Light Snow
3:55 PM 19.4 °F 5.0 °F 17.6 °F 93% 29.92 in 8.0 mi NW 16.1 mph 23.0 mph N/A Snow Light Snow
4:15 PM 19.4 °F 4.1 °F 17.6 °F 93% 29.94 in 8.0 mi NW 18.4 mph 21.9 mph N/A   Overcast
4:35 PM 19.4 °F 5.0 °F 15.8 °F 86% 29.94 in 7.0 mi NW 16.1 mph - N/A Snow Light Snow
4:55 PM 19.4 °F 3.6 °F 15.8 °F 86% 29.94 in 8.0 mi NW 19.6 mph - N/A   Overcast
5:15 PM 17.6 °F 1.3 °F 15.8 °F 93% 29.95 in 9.0 mi NW 19.6 mph 26.5 mph N/A Snow Light Snow
5:35 PM 17.6 °F 3.7 °F 15.8 °F 93% 29.97 in 10.0 mi NW 13.8 mph - N/A   Overcast
5:55 PM 17.6 °F 3.7 °F 15.8 °F 93% 29.98 in 10.0 mi NW 13.8 mph - N/A   Overcast
6:15 PM 17.6 °F 2.2 °F 15.8 °F 93% 29.98 in 10.0 mi NW 17.3 mph - N/A   Overcast
6:35 PM 17.6 °F 4.3 °F 15.8 °F 93% 29.99 in 10.0 mi NW 12.7 mph 18.4 mph N/A   Overcast
6:55 PM 17.6 °F 3.7 °F 15.8 °F 93% 30.01 in 10.0 mi NW 13.8 mph - N/A   Overcast
7:15 PM 17.6 °F 2.7 °F 15.8 °F 93% 30.01 in 10.0 mi NW 16.1 mph - N/A Snow Light Snow
7:35 PM 17.6 °F 3.2 °F 14.0 °F 86% 30.02 in 10.0 mi NW 15.0 mph - N/A Snow Light Snow
7:55 PM 15.8 °F 0.3 °F 14.0 °F 93% 30.02 in 10.0 mi NW 16.1 mph 21.9 mph N/A Snow Light Snow
8:15 PM 15.8 °F 2.1 °F 14.0 °F 93% 30.02 in 10.0 mi NW 12.7 mph - N/A Rain Light Freezing Rain
8:35 PM 15.8 °F 1.4 °F 14.0 °F 93% 30.02 in 9.0 mi NW 13.8 mph - N/A Snow Light Snow
8:55 PM 15.8 °F 0.3 °F 14.0 °F 93% 30.03 in 10.0 mi NW 16.1 mph 19.6 mph N/A   Overcast
9:15 PM 15.8 °F 0.9 °F 14.0 °F 93% 30.04 in 10.0 mi NW 15.0 mph - N/A   Overcast
9:35 PM 15.8 °F 1.4 °F 14.0 °F 93% 30.04 in 10.0 mi NW 13.8 mph - N/A   Overcast
9:55 PM 15.8 °F 1.4 °F 14.0 °F 93% 30.05 in 10.0 mi NW 13.8 mph - N/A   Overcast
10:15 PM 15.8 °F 2.1 °F 14.0 °F 93% 30.05 in 10.0 mi NW 12.7 mph - N/A   Overcast
10:35 PM 15.8 °F 1.4 °F 14.0 °F 93% 30.05 in 10.0 mi NW 13.8 mph 18.4 mph N/A Snow Light Snow
10:55 PM 15.8 °F 2.1 °F 14.0 °F 93% 30.05 in 10.0 mi NNW 12.7 mph - N/A Snow Light Snow
11:15 PM 15.8 °F 1.4 °F 12.2 °F 86% 30.05 in 10.0 mi NW 13.8 mph - N/A Snow Light Snow
11:35 PM 14.0 °F 0.5 °F 12.2 °F 93% 30.06 in 10.0 mi NW 11.5 mph - N/A Snow Light Snow
11:55 PM 14.0 °F -0.2 °F 12.2 °F 93% 30.06 in 10.0 mi NW 12.7 mph - N/A   Overcast